sensor_id;sensor_type;location;lat;lon;timestamp;temperature;humidity
584;HTU21D;27024;54.068;12.116;2023-05-10T00:01:01;11.88;61.15
584;HTU21D;27024;54.068;12.116;2023-05-10T00:03:29;11.70;61.99
584;HTU21D;27024;54.068;12.116;2023-05-10T00:05:56;11.75;61.92
584;HTU21D;27024;54.068;12.116;2023-05-10T00:08:23;11.64;62.17
584;HTU21D;27024;54.068;12.116;2023-05-10T00:10:50;11.68;62.23
584;HTU21D;27024;54.068;12.116;2023-05-10T00:13:16;11.62;62.35
584;HTU21D;27024;54.068;12.116;2023-05-10T00:15:43;11.56;62.77
584;HTU21D;27024;54.068;12.116;2023-05-10T00:18:10;11.55;62.83
584;HTU21D;27024;54.068;12.116;2023-05-10T00:20:37;11.49;63.21
584;HTU21D;27024;54.068;12.116;2023-05-10T00:23:04;11.54;62.98
584;HTU21D;27024;54.068;12.116;2023-05-10T00:25:31;11.53;62.78
584;HTU21D;27024;54.068;12.116;2023-05-10T00:27:57;11.48;63.06
584;HTU21D;27024;54.068;12.116;2023-05-10T00:30:25;11.49;63.30
584;HTU21D;27024;54.068;12.116;2023-05-10T00:32:51;11.49;63.13
584;HTU21D;27024;54.068;12.116;2023-05-10T00:35:18;11.42;63.87
584;HTU21D;27024;54.068;12.116;2023-05-10T00:37:45;11.42;63.64
584;HTU21D;27024;54.068;12.116;2023-05-10T00:40:12;11.44;63.37
584;HTU21D;27024;54.068;12.116;2023-05-10T00:42:39;11.32;64.49
584;HTU21D;27024;54.068;12.116;2023-05-10T00:45:07;11.28;64.63
584;HTU21D;27024;54.068;12.116;2023-05-10T00:47:34;11.25;64.81
584;HTU21D;27024;54.068;12.116;2023-05-10T00:50:01;11.23;64.90
584;HTU21D;27024;54.068;12.116;2023-05-10T00:52:29;11.20;65.11
584;HTU21D;27024;54.068;12.116;2023-05-10T00:54:57;11.20;65.02
584;HTU21D;27024;54.068;12.116;2023-05-10T00:57:24;11.14;65.30
584;HTU21D;27024;54.068;12.116;2023-05-10T00:59:51;11.10;65.35
584;HTU21D;27024;54.068;12.116;2023-05-10T01:02:18;11.10;65.87
584;HTU21D;27024;54.068;12.116;2023-05-10T01:04:45;11.08;65.78
584;HTU21D;27024;54.068;12.116;2023-05-10T01:07:12;10.98;66.23
584;HTU21D;27024;54.068;12.116;2023-05-10T01:09:39;11.05;65.96
584;HTU21D;27024;54.068;12.116;2023-05-10T01:12:06;11.10;65.63
584;HTU21D;27024;54.068;12.116;2023-05-10T01:14:34;10.97;66.30
584;HTU21D;27024;54.068;12.116;2023-05-10T01:17:04;11.00;66.32
584;HTU21D;27024;54.068;12.116;2023-05-10T01:19:34;11.02;66.30
584;HTU21D;27024;54.068;12.116;2023-05-10T01:33:19;10.83;67.84
584;HTU21D;27024;54.068;12.116;2023-05-10T01:43:24;10.72;68.96
584;HTU21D;27024;54.068;12.116;2023-05-10T01:46:00;10.80;68.36
584;HTU21D;27024;54.068;12.116;2023-05-10T01:48:32;10.75;68.93
584;HTU21D;27024;54.068;12.116;2023-05-10T01:50:59;10.75;68.56
584;HTU21D;27024;54.068;12.116;2023-05-10T01:53:27;10.71;69.18
584;HTU21D;27024;54.068;12.116;2023-05-10T01:55:55;10.57;69.93
584;HTU21D;27024;54.068;12.116;2023-05-10T01:58:27;10.59;69.86
584;HTU21D;27024;54.068;12.116;2023-05-10T02:00:55;10.59;69.74
584;HTU21D;27024;54.068;12.116;2023-05-10T02:03:24;10.65;69.97
584;HTU21D;27024;54.068;12.116;2023-05-10T02:05:52;10.59;70.30
584;HTU21D;27024;54.068;12.116;2023-05-10T02:08:20;10.64;70.55
584;HTU21D;27024;54.068;12.116;2023-05-10T02:10:50;10.57;70.61
584;HTU21D;27024;54.068;12.116;2023-05-10T02:13:18;10.53;71.16
584;HTU21D;27024;54.068;12.116;2023-05-10T02:15:49;10.54;71.38
584;HTU21D;27024;54.068;12.116;2023-05-10T02:18:17;10.51;71.63
584;HTU21D;27024;54.068;12.116;2023-05-10T02:20:46;10.48;71.96
584;HTU21D;27024;54.068;12.116;2023-05-10T02:23:16;10.45;72.07
584;HTU21D;27024;54.068;12.116;2023-05-10T02:25:44;10.40;72.45
584;HTU21D;27024;54.068;12.116;2023-05-10T02:28:13;10.44;72.60
584;HTU21D;27024;54.068;12.116;2023-05-10T02:30:41;10.40;72.88
584;HTU21D;27024;54.068;12.116;2023-05-10T02:33:08;10.43;72.61
584;HTU21D;27024;54.068;12.116;2023-05-10T02:35:35;10.35;73.29
584;HTU21D;27024;54.068;12.116;2023-05-10T02:38:04;10.35;73.72
584;HTU21D;27024;54.068;12.116;2023-05-10T02:40:33;10.27;74.09
584;HTU21D;27024;54.068;12.116;2023-05-10T02:43:01;10.25;74.47
584;HTU21D;27024;54.068;12.116;2023-05-10T02:45:30;10.23;74.41
584;HTU21D;27024;54.068;12.116;2023-05-10T02:47:59;10.28;74.91
584;HTU21D;27024;54.068;12.116;2023-05-10T02:50:28;10.23;75.48
584;HTU21D;27024;54.068;12.116;2023-05-10T02:53:00;10.12;76.50
584;HTU21D;27024;54.068;12.116;2023-05-10T02:55:31;10.04;76.91
584;HTU21D;27024;54.068;12.116;2023-05-10T02:57:59;10.03;77.43
584;HTU21D;27024;54.068;12.116;2023-05-10T03:00:26;10.04;77.49
584;HTU21D;27024;54.068;12.116;2023-05-10T03:02:53;9.97;78.11
584;HTU21D;27024;54.068;12.116;2023-05-10T03:05:21;9.84;79.17
584;HTU21D;27024;54.068;12.116;2023-05-10T03:07:48;9.93;78.92
584;HTU21D;27024;54.068;12.116;2023-05-10T03:10:15;9.97;78.47
584;HTU21D;27024;54.068;12.116;2023-05-10T03:13:05;9.95;79.12
584;HTU21D;27024;54.068;12.116;2023-05-10T03:18:22;9.79;80.60
584;HTU21D;27024;54.068;12.116;2023-05-10T03:20:51;9.82;80.27
584;HTU21D;27024;54.068;12.116;2023-05-10T03:23:26;9.77;80.62
584;HTU21D;27024;54.068;12.116;2023-05-10T03:25:53;9.79;80.52
584;HTU21D;27024;54.068;12.116;2023-05-10T03:28:21;9.77;80.69
584;HTU21D;27024;54.068;12.116;2023-05-10T03:30:49;9.79;80.85
584;HTU21D;27024;54.068;12.116;2023-05-10T03:33:16;9.75;81.21
584;HTU21D;27024;54.068;12.116;2023-05-10T03:35:43;9.81;81.17
584;HTU21D;27024;54.068;12.116;2023-05-10T03:38:12;9.72;82.10
584;HTU21D;27024;54.068;12.116;2023-05-10T03:40:39;9.72;81.60
584;HTU21D;27024;54.068;12.116;2023-05-10T03:43:06;9.69;82.33
584;HTU21D;27024;54.068;12.116;2023-05-10T03:45:33;9.72;82.49
584;HTU21D;27024;54.068;12.116;2023-05-10T03:47:59;9.80;81.89
584;HTU21D;27024;54.068;12.116;2023-05-10T03:50:26;9.68;82.82
584;HTU21D;27024;54.068;12.116;2023-05-10T03:52:53;9.61;83.31
584;HTU21D;27024;54.068;12.116;2023-05-10T03:55:20;9.75;82.41
584;HTU21D;27024;54.068;12.116;2023-05-10T03:57:47;9.74;82.81
584;HTU21D;27024;54.068;12.116;2023-05-10T04:00:16;9.72;82.78
584;HTU21D;27024;54.068;12.116;2023-05-10T04:02:43;9.71;83.01
584;HTU21D;27024;54.068;12.116;2023-05-10T04:05:12;9.71;83.08
584;HTU21D;27024;54.068;12.116;2023-05-10T04:07:39;9.83;82.62
584;HTU21D;27024;54.068;12.116;2023-05-10T04:10:06;9.81;82.79
584;HTU21D;27024;54.068;12.116;2023-05-10T04:12:33;9.84;82.37
584;HTU21D;27024;54.068;12.116;2023-05-10T04:15:00;9.95;82.00
584;HTU21D;27024;54.068;12.116;2023-05-10T04:17:27;9.97;81.43
584;HTU21D;27024;54.068;12.116;2023-05-10T04:19:55;10.03;81.19
584;HTU21D;27024;54.068;12.116;2023-05-10T04:22:22;9.95;81.53
584;HTU21D;27024;54.068;12.116;2023-05-10T04:24:49;10.04;81.33
584;HTU21D;27024;54.068;12.116;2023-05-10T04:27:16;10.08;80.98
584;HTU21D;27024;54.068;12.116;2023-05-10T04:29:43;10.11;80.91
584;HTU21D;27024;54.068;12.116;2023-05-10T04:32:09;10.19;80.35
584;HTU21D;27024;54.068;12.116;2023-05-10T04:34:37;10.29;79.73
584;HTU21D;27024;54.068;12.116;2023-05-10T04:37:04;10.29;79.78
584;HTU21D;27024;54.068;12.116;2023-05-10T04:39:30;10.37;78.88
584;HTU21D;27024;54.068;12.116;2023-05-10T04:41:57;10.54;78.04
584;HTU21D;27024;54.068;12.116;2023-05-10T04:44:24;10.59;76.99
584;HTU21D;27024;54.068;12.116;2023-05-10T04:46:51;10.82;76.21
584;HTU21D;27024;54.068;12.116;2023-05-10T04:49:17;10.94;75.46
584;HTU21D;27024;54.068;12.116;2023-05-10T04:51:44;11.11;73.48
584;HTU21D;27024;54.068;12.116;2023-05-10T04:54:11;11.27;73.13
584;HTU21D;27024;54.068;12.116;2023-05-10T04:56:38;11.25;71.43
584;HTU21D;27024;54.068;12.116;2023-05-10T04:59:05;11.41;71.49
584;HTU21D;27024;54.068;12.116;2023-05-10T05:01:32;11.30;71.20
584;HTU21D;27024;54.068;12.116;2023-05-10T05:03:59;11.43;70.35
584;HTU21D;27024;54.068;12.116;2023-05-10T05:06:26;11.52;71.13
584;HTU21D;27024;54.068;12.116;2023-05-10T05:08:53;11.61;69.20
584;HTU21D;27024;54.068;12.116;2023-05-10T05:11:20;11.70;68.73
584;HTU21D;27024;54.068;12.116;2023-05-10T05:13:47;11.79;67.31
584;HTU21D;27024;54.068;12.116;2023-05-10T05:16:14;11.94;66.11
584;HTU21D;27024;54.068;12.116;2023-05-10T05:18:41;11.93;66.11
584;HTU21D;27024;54.068;12.116;2023-05-10T05:21:18;12.04;64.88
584;HTU21D;27024;54.068;12.116;2023-05-10T05:23:46;12.37;64.49
584;HTU21D;27024;54.068;12.116;2023-05-10T05:26:12;12.21;63.96
584;HTU21D;27024;54.068;12.116;2023-05-10T05:28:39;12.47;63.19
584;HTU21D;27024;54.068;12.116;2023-05-10T05:31:07;12.62;61.38
584;HTU21D;27024;54.068;12.116;2023-05-10T05:33:34;12.62;60.73
584;HTU21D;27024;54.068;12.116;2023-05-10T05:36:03;12.92;62.82
584;HTU21D;27024;54.068;12.116;2023-05-10T05:38:29;13.07;60.66
584;HTU21D;27024;54.068;12.116;2023-05-10T05:40:57;12.73;60.66
584;HTU21D;27024;54.068;12.116;2023-05-10T05:43:23;12.92;60.79
584;HTU21D;27024;54.068;12.116;2023-05-10T05:45:54;13.11;59.22
584;HTU21D;27024;54.068;12.116;2023-05-10T05:48:21;13.03;59.13
584;HTU21D;27024;54.068;12.116;2023-05-10T05:50:48;13.09;59.44
584;HTU21D;27024;54.068;12.116;2023-05-10T05:53:14;13.41;58.45
584;HTU21D;27024;54.068;12.116;2023-05-10T05:55:52;13.38;58.77
584;HTU21D;27024;54.068;12.116;2023-05-10T05:58:21;13.41;57.93
584;HTU21D;27024;54.068;12.116;2023-05-10T06:00:48;13.62;57.16
584;HTU21D;27024;54.068;12.116;2023-05-10T06:03:15;13.67;56.39
584;HTU21D;27024;54.068;12.116;2023-05-10T06:05:43;13.90;55.61
584;HTU21D;27024;54.068;12.116;2023-05-10T06:08:10;13.93;55.65
584;HTU21D;27024;54.068;12.116;2023-05-10T06:10:37;13.99;55.04
584;HTU21D;27024;54.068;12.116;2023-05-10T06:13:04;14.15;55.62
584;HTU21D;27024;54.068;12.116;2023-05-10T06:15:31;14.06;54.96
584;HTU21D;27024;54.068;12.116;2023-05-10T06:17:59;14.28;54.30
584;HTU21D;27024;54.068;12.116;2023-05-10T06:20:26;14.53;53.76
584;HTU21D;27024;54.068;12.116;2023-05-10T06:22:54;14.58;53.76
584;HTU21D;27024;54.068;12.116;2023-05-10T06:25:20;15.11;52.30
584;HTU21D;27024;54.068;12.116;2023-05-10T06:27:47;14.59;52.32
584;HTU21D;27024;54.068;12.116;2023-05-10T06:30:19;14.96;52.20
584;HTU21D;27024;54.068;12.116;2023-05-10T06:32:46;15.84;49.60
584;HTU21D;27024;54.068;12.116;2023-05-10T06:35:14;16.12;46.89
584;HTU21D;27024;54.068;12.116;2023-05-10T06:37:41;15.27;49.63
584;HTU21D;27024;54.068;12.116;2023-05-10T06:40:08;15.22;49.78
584;HTU21D;27024;54.068;12.116;2023-05-10T06:42:35;15.53;49.10
584;HTU21D;27024;54.068;12.116;2023-05-10T06:45:02;15.41;48.95
584;HTU21D;27024;54.068;12.116;2023-05-10T06:47:29;15.59;49.32
584;HTU21D;27024;54.068;12.116;2023-05-10T06:49:56;15.82;48.50
584;HTU21D;27024;54.068;12.116;2023-05-10T06:52:23;16.45;47.47
584;HTU21D;27024;54.068;12.116;2023-05-10T06:54:50;16.36;46.97
584;HTU21D;27024;54.068;12.116;2023-05-10T06:57:17;16.42;46.67
584;HTU21D;27024;54.068;12.116;2023-05-10T06:59:58;16.72;45.71
584;HTU21D;27024;54.068;12.116;2023-05-10T07:02:25;16.26;45.99
584;HTU21D;27024;54.068;12.116;2023-05-10T07:04:52;16.11;45.95
584;HTU21D;27024;54.068;12.116;2023-05-10T07:07:20;16.25;46.38
584;HTU21D;27024;54.068;12.116;2023-05-10T07:09:46;16.71;46.07
584;HTU21D;27024;54.068;12.116;2023-05-10T07:12:13;16.75;45.86
584;HTU21D;27024;54.068;12.116;2023-05-10T07:14:42;17.19;44.71
584;HTU21D;27024;54.068;12.116;2023-05-10T07:17:09;17.25;44.09
584;HTU21D;27024;54.068;12.116;2023-05-10T07:19:36;17.55;43.43
584;HTU21D;27024;54.068;12.116;2023-05-10T07:22:03;17.78;42.79
584;HTU21D;27024;54.068;12.116;2023-05-10T07:24:30;17.78;43.08
584;HTU21D;27024;54.068;12.116;2023-05-10T07:26:58;17.60;42.81
584;HTU21D;27024;54.068;12.116;2023-05-10T07:29:25;17.21;43.98
584;HTU21D;27024;54.068;12.116;2023-05-10T07:31:52;17.59;43.18
584;HTU21D;27024;54.068;12.116;2023-05-10T07:34:21;17.58;43.91
584;HTU21D;27024;54.068;12.116;2023-05-10T07:36:48;17.41;42.88
584;HTU21D;27024;54.068;12.116;2023-05-10T07:39:15;16.79;44.45
584;HTU21D;27024;54.068;12.116;2023-05-10T07:41:53;17.43;44.09
584;HTU21D;27024;54.068;12.116;2023-05-10T07:44:19;17.21;44.42
584;HTU21D;27024;54.068;12.116;2023-05-10T07:46:47;17.05;45.49
584;HTU21D;27024;54.068;12.116;2023-05-10T07:49:14;16.71;44.42
584;HTU21D;27024;54.068;12.116;2023-05-10T07:51:41;16.29;46.30
584;HTU21D;27024;54.068;12.116;2023-05-10T07:54:09;16.51;46.75
584;HTU21D;27024;54.068;12.116;2023-05-10T07:56:35;16.48;46.93
584;HTU21D;27024;54.068;12.116;2023-05-10T07:59:03;16.78;46.00
584;HTU21D;27024;54.068;12.116;2023-05-10T08:01:32;16.71;45.61
584;HTU21D;27024;54.068;12.116;2023-05-10T08:04:00;16.70;45.92
584;HTU21D;27024;54.068;12.116;2023-05-10T08:06:28;16.85;46.76
584;HTU21D;27024;54.068;12.116;2023-05-10T08:08:56;16.79;46.19
584;HTU21D;27024;54.068;12.116;2023-05-10T08:11:23;16.86;47.25
584;HTU21D;27024;54.068;12.116;2023-05-10T08:13:51;16.82;47.68
584;HTU21D;27024;54.068;12.116;2023-05-10T08:16:18;16.90;46.25
584;HTU21D;27024;54.068;12.116;2023-05-10T08:18:45;16.94;46.76
584;HTU21D;27024;54.068;12.116;2023-05-10T08:21:14;17.33;46.74
584;HTU21D;27024;54.068;12.116;2023-05-10T08:23:41;17.02;46.76
584;HTU21D;27024;54.068;12.116;2023-05-10T08:26:10;17.47;44.99
584;HTU21D;27024;54.068;12.116;2023-05-10T08:28:38;17.06;45.95
584;HTU21D;27024;54.068;12.116;2023-05-10T08:31:05;17.17;45.62
584;HTU21D;27024;54.068;12.116;2023-05-10T08:33:32;17.18;45.67
584;HTU21D;27024;54.068;12.116;2023-05-10T08:35:59;17.29;46.99
584;HTU21D;27024;54.068;12.116;2023-05-10T08:38:26;17.61;45.35
584;HTU21D;27024;54.068;12.116;2023-05-10T08:40:54;17.77;46.51
584;HTU21D;27024;54.068;12.116;2023-05-10T08:43:29;18.07;46.35
584;HTU21D;27024;54.068;12.116;2023-05-10T08:46:00;18.04;44.52
584;HTU21D;27024;54.068;12.116;2023-05-10T08:48:28;18.14;45.07
584;HTU21D;27024;54.068;12.116;2023-05-10T08:50:58;18.08;44.80
584;HTU21D;27024;54.068;12.116;2023-05-10T08:53:26;18.19;44.63
584;HTU21D;27024;54.068;12.116;2023-05-10T08:55:55;18.36;43.96
584;HTU21D;27024;54.068;12.116;2023-05-10T08:58:22;18.64;42.56
584;HTU21D;27024;54.068;12.116;2023-05-10T09:00:49;18.65;41.88
584;HTU21D;27024;54.068;12.116;2023-05-10T09:03:19;18.85;41.99
584;HTU21D;27024;54.068;12.116;2023-05-10T09:05:47;19.30;41.68
584;HTU21D;27024;54.068;12.116;2023-05-10T09:08:14;19.73;40.23
584;HTU21D;27024;54.068;12.116;2023-05-10T09:10:43;20.40;38.78
584;HTU21D;27024;54.068;12.116;2023-05-10T09:13:14;20.36;39.32
584;HTU21D;27024;54.068;12.116;2023-05-10T09:15:43;20.74;39.27
584;HTU21D;27024;54.068;12.116;2023-05-10T09:18:11;21.01;38.07
584;HTU21D;27024;54.068;12.116;2023-05-10T09:20:38;21.10;36.76
584;HTU21D;27024;54.068;12.116;2023-05-10T09:23:05;21.02;37.94
584;HTU21D;27024;54.068;12.116;2023-05-10T09:25:32;20.87;36.47
584;HTU21D;27024;54.068;12.116;2023-05-10T09:28:06;20.96;36.33
584;HTU21D;27024;54.068;12.116;2023-05-10T09:30:34;21.54;34.70
584;HTU21D;27024;54.068;12.116;2023-05-10T09:33:02;21.39;35.73
584;HTU21D;27024;54.068;12.116;2023-05-10T09:35:31;21.88;35.47
584;HTU21D;27024;54.068;12.116;2023-05-10T09:38:03;21.76;34.03
584;HTU21D;27024;54.068;12.116;2023-05-10T09:40:31;22.08;34.74
584;HTU21D;27024;54.068;12.116;2023-05-10T09:43:08;21.99;35.32
584;HTU21D;27024;54.068;12.116;2023-05-10T09:45:35;22.51;35.54
584;HTU21D;27024;54.068;12.116;2023-05-10T09:48:09;22.13;34.39
584;HTU21D;27024;54.068;12.116;2023-05-10T09:50:36;22.17;34.34
584;HTU21D;27024;54.068;12.116;2023-05-10T09:53:03;22.61;33.33
584;HTU21D;27024;54.068;12.116;2023-05-10T09:55:45;22.93;33.98
584;HTU21D;27024;54.068;12.116;2023-05-10T09:58:13;22.88;32.40
584;HTU21D;27024;54.068;12.116;2023-05-10T10:00:42;23.11;32.65
584;HTU21D;27024;54.068;12.116;2023-05-10T10:03:18;23.59;32.32
584;HTU21D;27024;54.068;12.116;2023-05-10T10:05:46;23.17;32.64
584;HTU21D;27024;54.068;12.116;2023-05-10T10:08:14;23.58;33.24
584;HTU21D;27024;54.068;12.116;2023-05-10T10:10:41;24.12;31.18
584;HTU21D;27024;54.068;12.116;2023-05-10T10:13:09;23.67;31.09
584;HTU21D;27024;54.068;12.116;2023-05-10T10:15:35;23.61;31.99
584;HTU21D;27024;54.068;12.116;2023-05-10T10:18:03;23.51;30.22
584;HTU21D;27024;54.068;12.116;2023-05-10T10:20:33;23.74;31.42
584;HTU21D;27024;54.068;12.116;2023-05-10T10:23:00;24.00;30.80
584;HTU21D;27024;54.068;12.116;2023-05-10T10:25:27;23.36;32.22
584;HTU21D;27024;54.068;12.116;2023-05-10T10:30:43;24.08;29.81
584;HTU21D;27024;54.068;12.116;2023-05-10T10:36:06;23.97;30.00
584;HTU21D;27024;54.068;12.116;2023-05-10T10:38:57;23.69;30.09
584;HTU21D;27024;54.068;12.116;2023-05-10T10:41:37;24.40;28.57
584;HTU21D;27024;54.068;12.116;2023-05-10T10:52:26;25.00;27.77
584;HTU21D;27024;54.068;12.116;2023-05-10T10:57:28;23.75;29.96
584;HTU21D;27024;54.068;12.116;2023-05-10T11:05:44;25.19;28.81
584;HTU21D;27024;54.068;12.116;2023-05-10T11:10:50;25.21;27.84
584;HTU21D;27024;54.068;12.116;2023-05-10T11:13:28;25.35;27.62
584;HTU21D;27024;54.068;12.116;2023-05-10T11:15:55;25.45;28.10
584;HTU21D;27024;54.068;12.116;2023-05-10T11:18:28;25.09;26.97
584;HTU21D;27024;54.068;12.116;2023-05-10T11:20:58;25.80;27.59
584;HTU21D;27024;54.068;12.116;2023-05-10T11:23:31;26.37;27.32
584;HTU21D;27024;54.068;12.116;2023-05-10T11:25:59;26.31;25.81
584;HTU21D;27024;54.068;12.116;2023-05-10T11:28:27;26.15;25.11
584;HTU21D;27024;54.068;12.116;2023-05-10T11:30:54;25.61;25.59
584;HTU21D;27024;54.068;12.116;2023-05-10T11:33:22;26.04;25.52
584;HTU21D;27024;54.068;12.116;2023-05-10T11:35:49;25.77;25.65
584;HTU21D;27024;54.068;12.116;2023-05-10T11:38:15;25.34;26.53
584;HTU21D;27024;54.068;12.116;2023-05-10T11:40:43;26.08;25.23
584;HTU21D;27024;54.068;12.116;2023-05-10T11:43:10;25.56;24.75
584;HTU21D;27024;54.068;12.116;2023-05-10T11:45:38;26.10;25.13
584;HTU21D;27024;54.068;12.116;2023-05-10T11:48:04;25.46;25.87
584;HTU21D;27024;54.068;12.116;2023-05-10T11:50:31;26.34;26.07
584;HTU21D;27024;54.068;12.116;2023-05-10T11:52:59;26.51;25.78
584;HTU21D;27024;54.068;12.116;2023-05-10T11:55:25;25.95;24.59
584;HTU21D;27024;54.068;12.116;2023-05-10T11:57:54;25.90;25.01
584;HTU21D;27024;54.068;12.116;2023-05-10T12:00:21;26.67;25.92
584;HTU21D;27024;54.068;12.116;2023-05-10T12:02:48;26.13;25.56
584;HTU21D;27024;54.068;12.116;2023-05-10T12:05:15;25.69;24.94
584;HTU21D;27024;54.068;12.116;2023-05-10T12:07:43;25.54;25.84
584;HTU21D;27024;54.068;12.116;2023-05-10T12:10:12;25.86;27.02
584;HTU21D;27024;54.068;12.116;2023-05-10T12:12:45;25.29;25.46
584;HTU21D;27024;54.068;12.116;2023-05-10T12:17:44;24.74;26.39
584;HTU21D;27024;54.068;12.116;2023-05-10T12:20:18;24.14;28.42
584;HTU21D;27024;54.068;12.116;2023-05-10T12:22:50;24.87;27.07
584;HTU21D;27024;54.068;12.116;2023-05-10T12:25:18;24.92;26.99
584;HTU21D;27024;54.068;12.116;2023-05-10T12:27:56;24.89;27.16
584;HTU21D;27024;54.068;12.116;2023-05-10T12:30:27;24.69;26.17
584;HTU21D;27024;54.068;12.116;2023-05-10T12:33:06;25.25;27.23
584;HTU21D;27024;54.068;12.116;2023-05-10T12:35:50;24.83;26.66
584;HTU21D;27024;54.068;12.116;2023-05-10T12:38:33;24.82;27.20
584;HTU21D;27024;54.068;12.116;2023-05-10T12:41:03;24.46;27.81
584;HTU21D;27024;54.068;12.116;2023-05-10T12:43:30;24.29;28.21
584;HTU21D;27024;54.068;12.116;2023-05-10T12:45:57;24.88;27.29
584;HTU21D;27024;54.068;12.116;2023-05-10T12:48:24;25.19;26.36
584;HTU21D;27024;54.068;12.116;2023-05-10T12:50:51;25.35;26.56
584;HTU21D;27024;54.068;12.116;2023-05-10T12:53:18;25.54;26.04
584;HTU21D;27024;54.068;12.116;2023-05-10T12:55:45;25.64;26.53
584;HTU21D;27024;54.068;12.116;2023-05-10T12:58:12;25.87;25.92
584;HTU21D;27024;54.068;12.116;2023-05-10T13:00:53;26.12;25.00
584;HTU21D;27024;54.068;12.116;2023-05-10T13:03:20;26.09;26.27
584;HTU21D;27024;54.068;12.116;2023-05-10T13:05:47;26.28;25.90
584;HTU21D;27024;54.068;12.116;2023-05-10T13:08:14;25.89;25.52
584;HTU21D;27024;54.068;12.116;2023-05-10T13:10:41;26.27;25.36
584;HTU21D;27024;54.068;12.116;2023-05-10T13:13:08;25.66;26.07
584;HTU21D;27024;54.068;12.116;2023-05-10T13:15:35;26.81;25.12
584;HTU21D;27024;54.068;12.116;2023-05-10T13:18:02;26.92;24.04
584;HTU21D;27024;54.068;12.116;2023-05-10T13:20:29;27.08;24.21
584;HTU21D;27024;54.068;12.116;2023-05-10T13:22:55;27.42;24.94
584;HTU21D;27024;54.068;12.116;2023-05-10T13:25:22;27.89;24.30
584;HTU21D;27024;54.068;12.116;2023-05-10T13:27:50;27.50;24.43
584;HTU21D;27024;54.068;12.116;2023-05-10T13:30:16;27.53;23.93
584;HTU21D;27024;54.068;12.116;2023-05-10T13:32:44;27.94;23.92
584;HTU21D;27024;54.068;12.116;2023-05-10T13:35:11;27.79;24.22
584;HTU21D;27024;54.068;12.116;2023-05-10T13:37:38;28.05;23.37
584;HTU21D;27024;54.068;12.116;2023-05-10T13:40:05;27.80;23.84
584;HTU21D;27024;54.068;12.116;2023-05-10T13:42:33;26.62;25.39
584;HTU21D;27024;54.068;12.116;2023-05-10T13:45:01;26.67;25.30
584;HTU21D;27024;54.068;12.116;2023-05-10T13:47:28;26.58;26.00
584;HTU21D;27024;54.068;12.116;2023-05-10T13:49:55;25.52;27.10
584;HTU21D;27024;54.068;12.116;2023-05-10T13:52:22;25.67;26.91
584;HTU21D;27024;54.068;12.116;2023-05-10T13:54:49;25.47;27.74
584;HTU21D;27024;54.068;12.116;2023-05-10T13:57:18;24.88;28.82
584;HTU21D;27024;54.068;12.116;2023-05-10T13:59:45;25.34;28.28
584;HTU21D;27024;54.068;12.116;2023-05-10T14:02:12;26.16;27.18
584;HTU21D;27024;54.068;12.116;2023-05-10T14:04:40;26.54;26.10
584;HTU21D;27024;54.068;12.116;2023-05-10T14:07:07;26.23;26.34
584;HTU21D;27024;54.068;12.116;2023-05-10T14:09:34;25.67;27.18
584;HTU21D;27024;54.068;12.116;2023-05-10T14:12:01;25.42;27.97
584;HTU21D;27024;54.068;12.116;2023-05-10T14:14:28;26.26;26.59
584;HTU21D;27024;54.068;12.116;2023-05-10T14:16:55;25.77;27.36
584;HTU21D;27024;54.068;12.116;2023-05-10T14:19:22;26.73;26.61
584;HTU21D;27024;54.068;12.116;2023-05-10T14:21:49;26.69;26.20
584;HTU21D;27024;54.068;12.116;2023-05-10T14:24:18;26.21;26.62
584;HTU21D;27024;54.068;12.116;2023-05-10T14:26:45;26.57;26.37
584;HTU21D;27024;54.068;12.116;2023-05-10T14:29:12;26.70;26.39
584;HTU21D;27024;54.068;12.116;2023-05-10T14:31:39;27.01;26.13
584;HTU21D;27024;54.068;12.116;2023-05-10T14:34:06;26.66;27.19
584;HTU21D;27024;54.068;12.116;2023-05-10T14:36:33;27.21;25.68
584;HTU21D;27024;54.068;12.116;2023-05-10T14:39:00;27.12;26.27
584;HTU21D;27024;54.068;12.116;2023-05-10T14:41:27;27.65;25.17
584;HTU21D;27024;54.068;12.116;2023-05-10T14:43:54;27.75;25.27
584;HTU21D;27024;54.068;12.116;2023-05-10T14:46:20;27.84;24.23
584;HTU21D;27024;54.068;12.116;2023-05-10T14:48:47;27.49;25.46
584;HTU21D;27024;54.068;12.116;2023-05-10T14:51:14;27.47;24.54
584;HTU21D;27024;54.068;12.116;2023-05-10T14:53:41;27.95;25.44
584;HTU21D;27024;54.068;12.116;2023-05-10T14:56:08;28.04;24.63
584;HTU21D;27024;54.068;12.116;2023-05-10T14:58:35;28.08;24.30
584;HTU21D;27024;54.068;12.116;2023-05-10T15:01:01;27.90;25.47
584;HTU21D;27024;54.068;12.116;2023-05-10T15:03:29;27.68;24.45
584;HTU21D;27024;54.068;12.116;2023-05-10T15:05:56;28.10;23.78
584;HTU21D;27024;54.068;12.116;2023-05-10T15:08:25;27.73;25.70
584;HTU21D;27024;54.068;12.116;2023-05-10T15:10:52;27.94;24.81
584;HTU21D;27024;54.068;12.116;2023-05-10T15:13:19;27.90;23.21
584;HTU21D;27024;54.068;12.116;2023-05-10T15:15:46;28.31;23.46
584;HTU21D;27024;54.068;12.116;2023-05-10T15:18:12;28.60;22.77
584;HTU21D;27024;54.068;12.116;2023-05-10T15:20:39;28.12;23.87
584;HTU21D;27024;54.068;12.116;2023-05-10T15:23:06;27.76;24.01
584;HTU21D;27024;54.068;12.116;2023-05-10T15:25:33;27.79;24.34
584;HTU21D;27024;54.068;12.116;2023-05-10T15:28:04;27.56;24.33
584;HTU21D;27024;54.068;12.116;2023-05-10T15:30:31;27.61;25.48
584;HTU21D;27024;54.068;12.116;2023-05-10T15:32:58;27.82;23.85
584;HTU21D;27024;54.068;12.116;2023-05-10T15:35:26;27.09;26.05
584;HTU21D;27024;54.068;12.116;2023-05-10T15:37:53;27.04;25.28
584;HTU21D;27024;54.068;12.116;2023-05-10T15:40:20;26.19;27.09
584;HTU21D;27024;54.068;12.116;2023-05-10T15:42:47;26.30;27.74
584;HTU21D;27024;54.068;12.116;2023-05-10T15:45:15;25.81;28.28
584;HTU21D;27024;54.068;12.116;2023-05-10T15:47:42;25.93;28.38
584;HTU21D;27024;54.068;12.116;2023-05-10T15:50:10;25.57;28.83
584;HTU21D;27024;54.068;12.116;2023-05-10T15:52:38;26.12;29.14
584;HTU21D;27024;54.068;12.116;2023-05-10T15:55:05;25.96;28.59
584;HTU21D;27024;54.068;12.116;2023-05-10T15:57:39;26.21;26.33
584;HTU21D;27024;54.068;12.116;2023-05-10T16:00:08;25.50;28.03
584;HTU21D;27024;54.068;12.116;2023-05-10T16:02:39;25.12;29.51
584;HTU21D;27024;54.068;12.116;2023-05-10T16:05:07;25.29;30.13
584;HTU21D;27024;54.068;12.116;2023-05-10T16:07:35;24.80;30.84
584;HTU21D;27024;54.068;12.116;2023-05-10T16:10:02;24.70;30.80
584;HTU21D;27024;54.068;12.116;2023-05-10T16:12:32;23.99;31.93
584;HTU21D;27024;54.068;12.116;2023-05-10T16:14:59;24.00;33.35
584;HTU21D;27024;54.068;12.116;2023-05-10T16:17:25;23.89;35.11
584;HTU21D;27024;54.068;12.116;2023-05-10T16:19:52;23.83;36.92
584;HTU21D;27024;54.068;12.116;2023-05-10T16:22:19;23.58;39.31
584;HTU21D;27024;54.068;12.116;2023-05-10T16:24:47;23.42;40.06
584;HTU21D;27024;54.068;12.116;2023-05-10T16:27:14;23.30;41.10